Dayton, OH (45475)

12:46 AM EST on January 30, 2015 (GMT -0500)
Kettering | Change Station
CLOSE
Current Station
Personal Weather Station
Location: Dayton, OH
Elevation: 915 ft
Nearby Weather Stations

Elev 915 ft 39.67 °N, 84.18 °W | Updated 23 seconds ago

Overcast
Overcast
32.7 °F
Feels Like 28 °F
N
4.5
Wind Variable Wind from SSW
Gusts 7.4 mph

Today
High -- | Low -- °F
--% Chance of Precip.
Yesterday
High -- | Low -- °F
Precip. -- in
7:46 AM 5:53 PM
Waxing Gibbous, 80% visible
Pressure 30.17 in
Visibility 8.0 miles
Clouds Mostly Cloudy 1700 ft
Overcast 2600 ft
Windchill 28 °F
Dew Point 28 °F
Humidity 81%
Rainfall 0.00 in
Snow Depth Not available.
UV 0.0 out of 12
Pollen .10 out of 12
Air Quality Not available.
Flu Activity Not available.
METAR KMGY 300453Z AUTO 29009KT 8SM BKN017 OVC026 01/M01 A3015 RMK AO2 SLP215 T00061011 400831011

More Conditions Fewer Conditions

Pressure 30.17 in
Visibility 8.0 miles
Clouds Mostly Cloudy 1700 ft
Overcast 2600 ft
Windchill 28 °F
Dew Point 28 °F
Humidity 81%
Rainfall 0.00 in
Snow Depth Not available.
UV 0.0 out of 12
Pollen .10 out of 12
Air Quality Not available.
Flu Activity Not available.
METAR KMGY 300453Z AUTO 29009KT 8SM BKN017 OVC026 01/M01 A3015 RMK AO2 SLP215 T00061011 400831011

More Conditions Fewer Conditions

10-Day Weather Forecast

Almanac

Astronomy

Jan. 30, 2015 Rise Set
Actual Time
Civil Twilight
Nautical Twilight
Astronomical Twilight
Moon
Length of Visible Light
Length of Day
Tomorrow will be .
, % of the Moon is Illuminated

Today's Extremes

State Highs State Lows

Community

WunderPhotos

Upload Photos

1,791,722 photos uploaded!

WunderBlogs® & News

Nearby

Air Quality

  Air Quality AQ Index Pollutant
Not available.

Snow Depth

Station Depth Elevation

Earthquake Activity

City Distance Mag. Time & Date
Minimum magnitude displayed is 2.5.

Coastal Water Temperatures

Place Temperature

Nearby Weather Stations